• Join FlightAware (Why Join?)
  • Login
  • US Flag 
06:42PM EDT


 

Airport Tracker/Info


-or-


 

Live Flight TrackerFlight Track Log ✈ PDT4207 ✈ 31-Oct-2013 ✈ KPHL - KBGM

Flight Track Log - Related Links

Times and Time Zones

All times are in EDT time to prevent confusion due to time zone crossing. See the PDT4207 flight status page for this flight to view local times or setup timezone preferences in your user account.

Time Position Orientation Groundspeed Altitude Reporting Facility
EDT Latitude Longitude Course Direction KTS MPH feet Rate Location/Type
09:40PM 39.9000 -75.2500 296° West 123 142 700  Level Philadelphia TRACON
09:41PM 39.9167 -75.3000 294° West 151 174 2,300 1,440 Climbing Philadelphia TRACON
09:42PM 39.9500 -75.3333 323° Northwest 164 189 3,900 1,440 Climbing Philadelphia TRACON
09:43PM 40.1179 -75.3161 311° West  Level Estimated
09:43PM 39.9833 -75.3667 323° Northwest 162 186 5,400  Level Philadelphia TRACON
09:44PM 40.1794 -75.3350 311° West  Level Estimated
09:44PM 40.0167 -75.3833 339° North 169 194 6,400  Level Philadelphia TRACON
09:45PM 40.2073 -75.4090 296° West  Level FlightAware Approximate
09:45PM 40.0667 -75.4000 346° North 194 223 7,600  Level Philadelphia TRACON
09:46PM 40.1167 -75.4167 346° North 153 176 8,800 780 Climbing Philadelphia TRACON
09:47PM 40.1508 -75.4797 305° West 191 220 9,500 780 Climbing New York Center
09:48PM 40.1928 -75.5261 320° Northwest 186 214 10,700 1,080 Climbing New York Center
09:49PM 40.2203 -75.5661 312° West 162 186 11,700 600 Climbing New York Center
09:50PM 40.2433 -75.6167 301° West 155 178 12,000 120 Climbing New York Center
09:51PM 40.2983 -75.6450 339° North 191 220 12,000  Level New York Center
09:52PM 40.3647 -75.6525 355° North 227 261 12,000  Level New York Center
09:53PM 40.4414 -75.6633 354° North 246 283 12,000  Level New York Center
09:54PM 40.5117 -75.6764 352° North 251 289 12,000  Level New York Center
09:55PM 40.5800 -75.6894 352° North 251 289 12,000  Level New York Center
09:56PM 40.6503 -75.7000 353° North 251 289 12,000  Level New York Center
09:57PM 40.7125 -75.7072 355° North 251 289 12,000  Level New York Center
09:58PM 40.7850 -75.7181 354° North 256 295 12,000  Level New York Center
09:59PM 40.8525 -75.7531 339° North 238 274 12,000 -60 Level New York Center
10:00PM 40.9158 -75.7825 341° North 238 274 11,900  Descending New York Center
10:01PM 40.9614 -75.8353 319° Northwest 231 266 12,000 -60 Climbing New York Center
10:02PM 41.0053 -75.8797 323° Northwest 226 260 11,800 -60 Descending New York Center
10:03PM 41.0553 -75.9303 323° Northwest 226 260 11,900 60 Climbing New York Center
10:04PM 41.1294 -75.9469 350° North 226 260 12,000  Climbing New York Center
10:05PM 41.2006 -75.9442 North 254 292 12,000  Level New York Center
10:06PM 41.2731 -75.9525 355° North 254 292 12,000  Level New York Center
10:07PM 41.3433 -75.9606 355° North 254 292 12,000  Level New York Center
10:08PM 41.4161 -75.9633 358° North 254 292 12,000  Level New York Center
10:09PM 41.4892 -75.9636 360° North 254 292 12,000 -120 Level New York Center
10:10PM 41.5619 -75.9636 360° North 254 292 11,800 -600 Descending New York Center
10:11PM 41.6411 -75.9669 358° North 267 307 10,800 -960 Descending New York Center
10:12PM 41.7139 -75.9644 North 284 327 9,900 -960 Descending New York Center
10:13PM 41.7931 -75.9650 360° North 284 327 8,900 -1,080 Descending New York Center
10:14PM 41.8803 -75.9719 357° North 284 327 7,800 -960 Descending New York Center
10:15PM 41.9589 -75.9808 355° North 289 333 7,000 -840 Descending New York Center
10:16PM 42.0353 -75.9953 352° North 289 333 6,200 -720 Descending New York Center
10:18PM 42.1105 -75.9667 North  Level FlightAware Approximate
10:18PM 42.1756 -76.0733 North 277 319 5,000  Level New York Center
10:19PM 42.2406 -76.1122 336° Northwest 267 307 4,800 -420 Descending New York Center
10:20PM 42.2919 -76.1725 319° Northwest 252 290 4,200 -480 Descending New York Center
10:21PM 42.3600 -76.1836 353° North 244 281 3,900 -420 Descending New York Center
10:22PM 42.3708 -76.1256 76° East 166 191 3,400 -540 Descending New York Center